Arlington, Massachusetts
Current Conditions -  °F | °C
As of 7:28 PM on Wednesday 26 Nov 2014 (Local Time) from KBED Reporting Station
Haze Haze  
Wind Chill: 20°   Ceiling: 800
Heat Index: 32°   Visibility: 3mi
Dew Point: 31°   Wind: 18mph
Humidity: 96%   Direction: 20°NNE
Pressure: 29.76"   Gusts: 26mph
Location:  42.42°N, 71.16°W
Report Text: KBED 270028Z 02016G23KT 3SM UP BR OVC008 00/M01 A2976 RMK AO2 UPB24FZRAE24 CIG 005V011 PRESFR P0007 I1000 T00001006
Loading
Personal Weather Stations






























Interactive Weather Map New forecast layout! Learn more

10-Day Weather Forecast

Advertisements
Track Severe Weather on mobile